Time;durP1;ratioP1;P1;durP2;ratioP2;P2;SDS_P1;SDS_P2;PMS_P1;PMS_P2;Temp;Humidity;BMP_temperature;BMP_pressure;BME280_temperature;BME280_humidity;BME280_pressure;Samples;Min_cycle;Max_cycle;Signal;HPM_P1;HPM_P2
2022/07/14 00:07:23;;;;;;;0.20;0.10;;;24.20;99.90;;;;;;25697879;23;20217;-70
2022/07/14 00:17:29;;;;;;;0.20;0.00;;;24.20;99.90;;;;;;25698215;23;20199;-69
2022/07/14 00:27:32;;;;;;;0.20;0.00;;;24.00;99.90;;;;;;25672081;23;20163;-70
2022/07/14 00:37:37;;;;;;;0.20;0.00;;;23.90;99.90;;;;;;25697023;23;20266;-68
2022/07/14 00:47:42;;;;;;;0.20;0.00;;;24.10;99.90;;;;;;25670718;23;20213;-70
2022/07/14 00:57:47;;;;;;;0.20;0.00;;;24.00;99.90;;;;;;25696866;23;20205;-69
2022/07/14 01:07:51;;;;;;;0.20;0.00;;;23.60;99.90;;;;;;25696058;23;20198;-69
2022/07/14 01:17:57;;;;;;;0.20;0.00;;;23.50;99.90;;;;;;25669861;23;20186;-69
2022/07/14 01:28:03;;;;;;;0.20;0.00;;;23.50;99.90;;;;;;25696224;23;20174;-69
2022/07/14 01:38:08;;;;;;;0.20;0.00;;;23.40;99.90;;;;;;25695149;23;20178;-70
2022/07/14 01:48:13;;;;;;;0.20;0.00;;;23.30;99.90;;;;;;25669299;23;20190;-70
2022/07/14 01:58:17;;;;;;;0.20;0.10;;;23.10;99.90;;;;;;25669177;23;20260;-69
2022/07/14 02:08:23;;;;;;;0.20;0.00;;;22.80;99.90;;;;;;25694833;23;20214;-69
2022/07/14 02:18:27;;;;;;;0.20;0.10;;;22.90;99.90;;;;;;25696005;23;20189;-70
2022/07/14 02:28:33;;;;;;;0.20;0.00;;;22.90;99.90;;;;;;25701424;23;20174;-70
2022/07/14 02:38:37;;;;;;;0.20;0.10;;;23.20;99.90;;;;;;25701799;23;20190;-69
2022/07/14 02:48:42;;;;;;;0.20;0.10;;;23.10;99.90;;;;;;25676011;23;20204;-69
2022/07/14 02:58:47;;;;;;;0.20;0.00;;;23.10;99.90;;;;;;25701237;23;20214;-70
2022/07/14 03:08:52;;;;;;;0.20;0.00;;;22.80;99.90;;;;;;25675576;23;20221;-69
2022/07/14 03:18:56;;;;;;;0.20;0.00;;;22.80;99.90;;;;;;25674653;23;20193;-70
2022/07/14 03:29:02;;;;;;;0.20;0.10;;;22.70;99.90;;;;;;25699774;23;20170;-70
2022/07/14 03:39:06;;;;;;;0.20;0.00;;;22.60;99.90;;;;;;25698747;23;20236;-69
2022/07/14 03:49:11;;;;;;;0.20;0.00;;;22.70;99.90;;;;;;25673339;23;20166;-70
2022/07/14 03:59:15;;;;;;;0.20;0.00;;;22.60;99.90;;;;;;25697949;23;20282;-69
2022/07/14 04:09:20;;;;;;;0.20;0.00;;;22.70;99.90;;;;;;25673104;23;20222;-70
2022/07/14 04:19:24;;;;;;;0.20;0.00;;;22.60;99.90;;;;;;25695556;23;20274;-69
2022/07/14 04:29:29;;;;;;;0.20;0.00;;;22.50;99.90;;;;;;25671219;23;20217;-70
2022/07/14 04:39:33;;;;;;;0.20;0.00;;;22.50;99.90;;;;;;25696270;23;20189;-69
2022/07/14 04:59:59;;;;;;;0.20;0.10;;;22.80;99.90;;;;;;25669791;23;20269;-69
2022/07/14 05:10:06;;;;;;;0.20;0.00;;;22.80;99.90;;;;;;25695913;23;20174;-68
2022/07/14 05:20:11;;;;;;;0.20;0.00;;;22.90;99.90;;;;;;25695213;23;20222;-70
2022/07/14 05:30:16;;;;;;;0.20;0.00;;;23.20;99.90;;;;;;25692868;23;20158;-70
2022/07/14 05:40:20;;;;;;;0.20;0.00;;;23.60;99.90;;;;;;25668248;23;20186;-69
2022/07/14 05:50:25;;;;;;;0.20;0.00;;;23.90;99.90;;;;;;25691843;23;20186;-70
2022/07/14 06:00:29;;;;;;;0.20;0.00;;;24.50;99.90;;;;;;25674120;23;20224;-69
2022/07/14 06:10:35;;;;;;;0.20;0.00;;;24.90;99.90;;;;;;25698986;23;20154;-68
2022/07/14 06:20:41;;;;;;;0.20;0.10;;;25.30;99.90;;;;;;25699515;23;20198;-69
2022/07/14 06:30:46;;;;;;;0.20;0.00;;;25.60;99.90;;;;;;25674915;23;20177;-71
2022/07/14 06:40:50;;;;;;;0.20;0.00;;;26.00;99.90;;;;;;25698675;23;20225;-70
2022/07/14 06:51:01;;;;;;;0.20;0.00;;;26.50;99.90;;;;;;25698024;23;20194;-69
2022/07/14 07:01:05;;;;;;;0.20;0.00;;;26.80;99.90;;;;;;25695066;23;20208;-69
2022/07/14 07:11:11;;;;;;;0.20;0.10;;;27.20;99.90;;;;;;25696313;23;20174;-69
2022/07/14 07:21:18;;;;;;;0.20;0.10;;;27.40;99.90;;;;;;25671780;23;20217;-69
2022/07/14 07:31:23;;;;;;;0.20;0.00;;;27.60;99.90;;;;;;25671399;23;20162;-70
2022/07/14 07:41:27;;;;;;;0.20;0.00;;;27.50;99.90;;;;;;25669933;23;20182;-70
2022/07/14 07:51:32;;;;;;;0.20;0.10;;;27.60;99.90;;;;;;25696003;23;20170;-70
2022/07/14 08:01:36;;;;;;;0.20;0.00;;;27.90;99.90;;;;;;25695405;23;20198;-71
2022/07/14 08:11:43;;;;;;;0.20;0.00;;;28.30;99.90;;;;;;25690236;23;20166;-67
2022/07/14 08:21:47;;;;;;;0.20;0.00;;;28.60;99.90;;;;;;25693182;23;20158;-67
2022/07/14 08:31:52;;;;;;;0.20;0.00;;;28.80;99.90;;;;;;25694455;23;20189;-69
2022/07/14 08:41:57;;;;;;;0.20;0.00;;;28.50;99.90;;;;;;25693640;23;20171;-70
2022/07/14 08:52:02;;;;;;;0.20;0.00;;;28.40;99.90;;;;;;25690165;23;20194;-67
2022/07/14 09:02:06;;;;;;;0.20;0.00;;;28.20;99.90;;;;;;25688518;23;20202;-69
2022/07/14 09:12:12;;;;;;;0.20;0.00;;;28.10;99.90;;;;;;25681872;23;20221;-67
2022/07/14 09:22:28;;;;;;;0.20;0.00;;;28.00;99.90;;;;;;25679458;23;20205;-69
2022/07/14 09:32:53;;;;;;;0.20;0.10;;;28.30;99.90;;;;;;25652609;23;20308;-69
2022/07/14 09:43:00;;;;;;;0.20;0.00;;;28.50;99.90;;;;;;25654750;23;20162;-70
2022/07/14 09:53:24;;;;;;;0.20;0.00;;;28.40;99.90;;;;;;25679520;23;20250;-70
2022/07/14 10:03:30;;;;;;;0.40;0.35;;;28.60;99.90;;;;;;25653720;23;20198;-69
2022/07/14 10:13:37;;;;;;;0.20;0.00;;;28.50;99.90;;;;;;25653428;23;21080;-68
2022/07/14 10:23:42;;;;;;;0.20;0.10;;;28.80;99.90;;;;;;25679794;23;20166;-70
2022/07/14 10:33:56;;;;;;;0.20;0.10;;;29.10;99.90;;;;;;25651299;23;20179;-69
2022/07/14 10:44:10;;;;;;;0.20;0.00;;;29.10;99.90;;;;;;25683206;23;20181;-69
2022/07/14 10:54:26;;;;;;;0.20;0.00;;;29.60;99.90;;;;;;25685326;23;20197;-70
2022/07/14 11:05:17;;;;;;;0.20;0.00;;;29.80;99.90;;;;;;25683544;23;20213;-68
2022/07/14 11:15:38;;;;;;;0.20;0.00;;;30.30;99.90;;;;;;25685116;23;20189;-68
2022/07/14 11:25:43;;;;;;;0.20;0.00;;;30.10;99.90;;;;;;25685215;23;20167;-69
2022/07/14 11:46:33;;;;;;;0.20;0.00;;;31.80;99.90;;;;;;25683785;23;20216;-69
2022/07/14 11:56:39;;;;;;;0.20;0.00;;;32.50;99.90;;;;;;25656055;23;20190;-69
2022/07/14 12:06:45;;;;;;;0.20;0.00;;;32.20;99.90;;;;;;25683087;23;20210;-68
2022/07/14 12:16:50;;;;;;;0.20;0.00;;;32.40;99.90;;;;;;25656086;23;20197;-69
2022/07/14 12:26:57;;;;;;;0.20;0.00;;;32.70;99.90;;;;;;25683303;23;20170;-69
2022/07/14 12:37:04;;;;;;;0.20;0.00;;;33.30;99.90;;;;;;25684071;23;20207;-69
2022/07/14 12:47:09;;;;;;;0.20;0.00;;;34.20;99.90;;;;;;25683136;23;20162;-69
2022/07/14 12:57:21;;;;;;;0.20;0.00;;;34.40;99.90;;;;;;25682256;23;20186;-69
2022/07/14 13:07:27;;;;;;;0.20;0.00;;;34.50;99.90;;;;;;25681668;23;20209;-69
2022/07/14 13:17:50;;;;;;;0.20;0.00;;;35.10;99.90;;;;;;25676667;23;20190;-68
2022/07/14 13:27:55;;;;;;;0.20;0.00;;;35.00;99.90;;;;;;25688569;23;20165;-68
2022/07/14 13:38:00;;;;;;;0.20;0.00;;;35.10;99.90;;;;;;25687699;23;20182;-68
2022/07/14 13:48:04;;;;;;;0.20;0.00;;;35.40;99.90;;;;;;25683051;23;20182;-67
2022/07/14 13:58:10;;;;;;;0.20;0.00;;;35.50;99.90;;;;;;25676317;23;20217;-68
2022/07/14 14:08:14;;;;;;;0.20;0.00;;;35.20;99.90;;;;;;25674521;23;20249;-68
2022/07/14 14:18:19;;;;;;;0.20;0.00;;;35.50;99.90;;;;;;25654981;23;20186;-70
2022/07/14 14:28:24;;;;;;;0.20;0.00;;;35.80;99.90;;;;;;25684691;23;20181;-68
2022/07/14 14:38:29;;;;;;;0.20;0.00;;;35.70;99.90;;;;;;25682635;23;20190;-69
2022/07/14 14:48:33;;;;;;;0.20;0.00;;;36.00;99.90;;;;;;25683536;23;20169;-69
2022/07/14 14:58:38;;;;;;;0.20;0.00;;;36.20;99.90;;;;;;25681647;23;20202;-68
2022/07/14 15:08:44;;;;;;;0.20;0.00;;;36.20;99.90;;;;;;25653766;23;20216;-69
2022/07/14 15:18:50;;;;;;;0.20;0.00;;;35.50;99.90;;;;;;25682198;23;20218;-68
2022/07/14 15:28:54;;;;;;;0.20;0.00;;;36.00;99.90;;;;;;25684565;23;20151;-70
2022/07/14 15:49:21;;;;;;;0.20;0.00;;;35.50;99.90;;;;;;25658044;23;20158;-69
2022/07/14 15:59:26;;;;;;;0.20;0.00;;;35.50;99.90;;;;;;25657139;23;20214;-69
2022/07/14 16:09:30;;;;;;;0.20;0.00;;;35.40;99.90;;;;;;25655299;23;20189;-69
2022/07/14 16:19:36;;;;;;;0.20;0.00;;;33.70;99.90;;;;;;25682207;23;20190;-68
2022/07/14 16:29:40;;;;;;;0.20;0.00;;;32.60;99.90;;;;;;25680859;23;20226;-69
2022/07/14 16:39:45;;;;;;;0.20;0.00;;;32.00;99.90;;;;;;25679940;23;20201;-69
2022/07/14 16:49:49;;;;;;;0.20;0.00;;;31.70;99.90;;;;;;25679921;23;20197;-70
2022/07/14 16:59:55;;;;;;;0.20;0.00;;;31.80;99.90;;;;;;25665626;23;20288;-69
2022/07/14 17:09:59;;;;;;;0.20;0.00;;;32.60;99.90;;;;;;25692369;23;20180;-67
2022/07/14 17:20:06;;;;;;;0.20;0.00;;;34.30;99.90;;;;;;25658908;23;20291;-69
2022/07/14 17:30:11;;;;;;;0.20;0.00;;;34.90;99.90;;;;;;25689484;23;20332;-68
2022/07/14 17:40:16;;;;;;;0.20;0.00;;;34.00;99.90;;;;;;25664819;23;20280;-70
2022/07/14 17:50:28;;;;;;;0.20;0.00;;;33.30;99.90;;;;;;25694090;23;20181;-70
2022/07/14 18:00:34;;;;;;;0.20;0.00;;;33.00;99.90;;;;;;25699380;23;20265;-71
2022/07/14 18:10:38;;;;;;;0.20;0.00;;;32.80;99.90;;;;;;25698232;23;20163;-70
2022/07/14 18:20:43;;;;;;;0.20;0.00;;;32.20;99.90;;;;;;25695632;23;20196;-71
2022/07/14 18:30:47;;;;;;;0.20;0.00;;;32.00;99.90;;;;;;25672387;23;20170;-71
2022/07/14 18:40:52;;;;;;;0.20;0.00;;;31.70;99.90;;;;;;25695663;23;20866;-71
2022/07/14 18:50:56;;;;;;;0.20;0.00;;;30.60;99.90;;;;;;25694178;23;20174;-70
2022/07/14 19:01:01;;;;;;;0.20;0.00;;;29.90;99.90;;;;;;25692659;23;20218;-70
2022/07/14 19:11:06;;;;;;;0.20;0.10;;;29.00;99.90;;;;;;25667265;23;20166;-70
2022/07/14 19:21:11;;;;;;;0.20;0.00;;;28.50;99.90;;;;;;25691713;23;20190;-71
2022/07/14 19:31:15;;;;;;;0.20;0.00;;;28.10;99.90;;;;;;25667600;23;20259;-70
2022/07/14 19:41:21;;;;;;;0.20;0.00;;;27.90;99.90;;;;;;25694604;23;20194;-70
2022/07/14 19:51:25;;;;;;;0.20;0.00;;;28.10;99.90;;;;;;25685992;23;20181;-70
2022/07/14 20:01:31;;;;;;;0.20;0.00;;;28.00;99.90;;;;;;25690228;23;20206;-69
2022/07/14 20:11:35;;;;;;;0.20;0.00;;;28.00;99.90;;;;;;25691581;23;20230;-69
2022/07/14 20:21:42;;;;;;;0.20;0.05;;;27.70;99.90;;;;;;25666335;23;20273;-69
2022/07/14 20:42:09;;;;;;;0.20;0.00;;;27.30;99.90;;;;;;25691900;23;20193;-71
2022/07/14 20:52:13;;;;;;;0.20;0.00;;;27.20;99.90;;;;;;25691240;23;20162;-70
2022/07/14 21:02:19;;;;;;;0.20;0.00;;;27.20;99.90;;;;;;25690850;23;20198;-71
2022/07/14 21:12:23;;;;;;;0.20;0.00;;;27.10;99.90;;;;;;25665277;23;20285;-71
2022/07/14 21:22:29;;;;;;;0.20;0.00;;;26.90;99.90;;;;;;25694254;23;20189;-71
2022/07/14 21:32:33;;;;;;;0.20;0.00;;;26.80;99.90;;;;;;25694594;23;20166;-70
2022/07/14 21:42:44;;;;;;;0.20;0.00;;;26.50;99.90;;;;;;25669880;23;20216;-71
2022/07/14 21:52:48;;;;;;;0.20;0.10;;;26.40;99.90;;;;;;25694480;23;20162;-72
2022/07/14 22:02:53;;;;;;;0.20;0.00;;;26.40;99.90;;;;;;25664838;23;20237;-71
2022/07/14 22:12:57;;;;;;;0.20;0.00;;;26.30;99.90;;;;;;25669113;23;20162;-72
2022/07/14 22:23:02;;;;;;;0.20;0.00;;;26.10;99.90;;;;;;25668996;23;20186;-72
2022/07/14 22:33:06;;;;;;;0.20;0.00;;;26.00;99.90;;;;;;25694442;23;20174;-72
2022/07/14 22:43:11;;;;;;;0.20;0.00;;;26.30;99.90;;;;;;25700873;23;20201;-72
2022/07/14 22:53:15;;;;;;;0.20;0.00;;;26.30;99.90;;;;;;25675184;23;20186;-72
2022/07/14 23:03:21;;;;;;;0.20;0.00;;;26.90;99.90;;;;;;25650100;23;20252;-72
2022/07/14 23:13:24;;;;;;;0.20;0.00;;;27.20;99.90;;;;;;25700377;23;20177;-72
2022/07/14 23:23:30;;;;;;;0.20;0.10;;;27.30;99.90;;;;;;25700950;23;20193;-72
2022/07/14 23:33:33;;;;;;;0.20;0.10;;;27.20;99.90;;;;;;25700713;23;20245;-70
2022/07/14 23:43:39;;;;;;;0.20;0.00;;;26.90;99.90;;;;;;25699973;23;20190;-71
2022/07/14 23:53:43;;;;;;;0.20;0.00;;;26.50;99.90;;;;;;25699131;23;20162;-71
